Tiempo atmosférico en la estación meteorológica de Autilla del Pino, Palencia (874 m.)



Fecha
DESCASC
Temp. máxima en grados centígrados (hora)
DESCASC
Temp. mínima en grados centígrados (hora)
DESCASC
Temp. media en grados centígrados
DESCASC
Racha de viento máxima en m/sg (hora)
DESCASC
Velocidad máxima media en intervalos de 10 minutos(hora)
DESCASC
Precipitaciones diarias en mm
DESCASC
Precipitaciones de 00:00 a 06:00 en mm
DESCASC
Precipitaciones de 06:00 a 12:00 en mm
DESCASC
Precipitaciones de 12:00 a 18:00 en mm
DESCASC
Precipitaciones de 18:00 a 24:00 en mm
DESCASC
24-09-2020 18.8 (16:10) 9.8 (08:20) 14.3 17.78 (15:50) 13.06 (15:50) 0 0 0 0 0
23-09-2020 20.9 (15:50) 11.1 (00:00) 16 12.22 (15:00) 9.44 (16:20) 0 0 0 0 0
22-09-2020 20.1 (17:30) 9 (00:00) 14.6 7.22 (18:30) 5.28 (23:30) 0 0 0 0 0
21-09-2020 21.8 (16:30) 9.8 (00:00) 15.8 7.78 (16:10) 3.61 (22:10) 0 0 0 0 0
20-09-2020 19.4 (17:40) 11.7 (00:00) 15.5 8.33 (13:10) 6.39 (13:40) 0 0 0 0 0
19-09-2020 17.4 (16:10) 11.5 (00:00) 14.4 11.39 (18:10) 8.61 (16:20) 0 0 0 0 0
18-09-2020 22.6 (16:00) 11.7 (00:00) 17.2 16.94 (00:50) 12.5 (00:50) 0 0 0 0 0
17-09-2020 27.3 (16:20) 15.5 (00:00) 21.4 14.72 (23:20) 10 (23:20) 0 0 0 0 0
16-09-2020 28.4 (16:50) 12.5 (08:00) 20.4 8.06 (15:10) 4.44 (23:59) 0 0 0 0 0
15-09-2020 26 (17:20) 13.1 (00:00) 19.6 15.28 (00:10) 10.28 (00:40) 0 0 0 0 0
14-09-2020 29.3 (18:10) 15.3 (00:00) 22.3 21.39 (20:00) 10.56 (20:00) 0 0 0 0 0
13-09-2020 32.5 (17:30) 12.8 (00:00) 22.7 8.06 (16:40) 5.28 (04:40) 0 0 0 0 0
12-09-2020 30.6 (17:10) 11.7 (06:30) 21.2 9.44 (18:00) 5.83 (09:20) 0 0 0 0 0
11-09-2020 28.6 (17:30) 11.9 (00:00) 20.3 7.22 (00:30) 5.83 (04:40) 0 0 0 0 0
10-09-2020 27.8 (17:10) 11.6 (00:00) 19.7 6.94 (23:50) 5.56 (06:10) 0 0 0 0 0
09-09-2020 27.8 (16:50) 9.6 (08:00) 18.7 7.22 (22:50) 5.56 (23:00) 0 0 0 0 0
08-09-2020 26.2 (15:50) 7 (00:00) 16.6 13.61 (00:10) 10.56 (00:20) 0 0 0 0 0
07-09-2020 20.9 (16:10) 8.9 (07:50) 14.9 17.5 (16:30) 10 (22:40) 0 0 0 0 0
06-09-2020 23.2 (16:20) 11.5 (00:00) 17.4 14.72 (03:00) 11.39 (01:00) 0 0 0 0 0
05-09-2020 29.3 (15:40) 13.2 (00:00) 21.2 13.89 (23:30) 10.56 (23:50) 0 0 0 0 0
04-09-2020 32.5 (16:50) 12.2 (00:00) 22.3 8.06 (18:00) 5 (23:30) 0 0 0 0 0
03-09-2020 29.6 (17:40) 9.5 (00:00) 19.6 16.39 (01:50) 5.28 (00:10) 0 0 0 0 0
02-09-2020 25.4 (17:00) 9.5 (00:00) 17.4 12.22 (00:50) 8.33 (00:50) 0 0 0 0 0
01-09-2020 26 (16:10) 10.2 (00:00) 18.1 11.11 (23:20) 8.61 (23:30) 0 0 0 0 0
31-08-2020 22.4 (18:50) 5.1 (00:00) 13.7 8.33 (00:20) 5.83 (00:40) 0 0 0 0 0
30-08-2020 18.8 (16:40) 3.7 (00:00) 11.2 8.89 (20:50) 6.11 (20:40) 0 0 0 0 0
29-08-2020 20.2 (17:30) 6.2 (00:00) 13.2 13.33 (19:50) 10 (19:40) 0 0 0 0 0
28-08-2020 25.5 (16:50) 11.9 (00:00) 18.7 12.22 (18:30) 8.33 (21:00) 0 0 0 0 0

Gráficas

Temp. máximas Temp. mínimas Temp. medias Precipitaciones Rachas de viento máximas Velocidades máximas media en intervalos de 10 minutos

Datos horarios

Fecha y hora oficial Temperatura (ºC) Velocidad del viento (km/h) Dirección del viento Racha (km/h) Dirección de racha Precipitación (mm) Presión (hPa) Tendencia (hPa) Humedad (%)
2020-09-26 23:00:00 12.4 27 Oeste 41 Noroeste 0 -- -- 77
2020-09-26 22:00:00 12.8 27 Oeste 42 Oeste 0 -- -- 74
2020-09-26 21:00:00 13.3 21 Oeste 32 Oeste 0 -- -- 70
2020-09-26 20:00:00 14.4 24 Oeste 43 Noroeste 0 -- -- 59
2020-09-26 19:00:00 16.6 34 Noroeste 46 Noroeste 0 -- -- 51
2020-09-26 18:00:00 17.8 37 Noroeste 50 Oeste 0 -- -- 47
2020-09-26 17:00:00 17.8 32 Oeste 48 Oeste 0 -- -- 45
2020-09-26 16:00:00 18.3 33 Oeste 46 Oeste 0 -- -- 42
2020-09-26 15:00:00 16.9 30 Oeste 43 Oeste 0 -- -- 48
2020-09-26 14:00:00 15.6 23 Oeste 41 Oeste 0 -- -- 49
2020-09-26 13:00:00 14 23 Oeste 36 Oeste 0 -- -- 57
2020-09-26 12:00:00 11.3 24 Oeste 31 Noroeste 0 -- -- 69
2020-09-26 11:00:00 9.4 22 Noroeste 33 Noroeste 0 -- -- 78
2020-09-26 10:00:00 8.3 20 Oeste 28 Oeste 0 -- -- 82
2020-09-26 09:00:00 6.7 18 Oeste 25 Oeste 0 -- -- 86
2020-09-26 08:00:00 6.1 21 Oeste 28 Oeste 0 -- -- 91
2020-09-26 07:00:00 5.8 19 Oeste 26 Noroeste 0 -- -- 92
2020-09-26 06:00:00 5.1 19 Noroeste 23 Noroeste 0 -- -- 92
2020-09-26 05:00:00 5.1 17 Oeste 24 Oeste 0 -- -- 87
2020-09-26 04:00:00 5.5 19 Oeste 25 Noroeste 0 -- -- 84
2020-09-26 03:00:00 5.9 17 Oeste 23 Noroeste 0 -- -- 80
2020-09-26 02:00:00 6.1 19 Oeste 24 Oeste 0 -- -- 80
2020-09-26 01:00:00 5.8 10 Oeste 19 Noroeste 0 -- -- 79
2020-09-26 00:00:00 6.3 15 Noroeste 25 Noroeste 0 -- -- 79
2020-09-25 23:00:00 6.6 13 Noroeste 32 Noroeste 0 -- -- 76
2020-09-25 22:00:00 7.4 10 Noroeste 23 Norte 0 -- -- 72
2020-09-25 21:00:00 8.8 15 Norte 35 Noroeste 0 -- -- 62
2020-09-25 20:00:00 11 24 Norte 38 Norte 0 -- -- 49
2020-09-25 19:00:00 13.4 31 Norte 42 Norte 0 -- -- 40
2020-09-25 18:00:00 14.4 29 Noroeste 48 Noroeste 0 -- -- 39
2020-09-25 17:00:00 15.5 32 Noroeste 46 Noroeste 0 -- -- 39
2020-09-25 16:00:00 15.3 30 Noroeste 46 Noroeste 0 -- -- 40
2020-09-25 15:00:00 13.5 28 Noroeste 50 Oeste 0 -- -- 42
2020-09-25 14:00:00 13.6 34 Noroeste 53 Oeste 0 -- -- 45
2020-09-25 13:00:00 13.2 34 Noroeste 51 Oeste 0 -- -- 46
2020-09-25 12:00:00 11.4 36 Oeste 47 Oeste 0 -- -- 51
2020-09-25 11:00:00 10.5 35 Oeste 49 Oeste 0 -- -- 56
2020-09-25 10:00:00 8.6 32 Oeste 46 Oeste 0 -- -- 66
2020-09-25 09:00:00 7 24 Oeste 37 Oeste 0 -- -- 74
2020-09-25 08:00:00 6.2 24 Oeste 31 Oeste 0 -- -- 76
2020-09-25 07:00:00 6.1 17 Oeste 34 Oeste 0 -- -- 75
2020-09-25 06:00:00 6.1 26 Noroeste 85 Noroeste 0 -- -- 76
2020-09-25 05:00:00 7.3 32 Oeste 46 Noroeste 0 -- -- 73
2020-09-25 04:00:00 8.1 29 Oeste 48 Oeste 0 -- -- 75
2020-09-25 03:00:00 8.9 30 Oeste 46 Noroeste 0 -- -- 85
2020-09-25 02:00:00 8.9 30 Oeste 42 Oeste 0 -- -- 88
2020-09-25 01:00:00 9.6 30 Oeste 48 Oeste 0 -- -- 79
2020-09-25 00:00:00 10.7 33 Oeste 48 Oeste 0 -- -- 70
2020-09-24 23:00:00 10.4 32 Oeste 45 Oeste 0 -- -- 68
2020-09-24 22:00:00 11.4 32 Oeste 54 Oeste 0 -- -- 64
2020-09-24 21:00:00 13.4 39 Oeste 54 Oeste 0 -- -- 52
2020-09-24 20:00:00 14.9 38 Oeste 53 Oeste 0 -- -- 44
2020-09-24 19:00:00 16.3 38 Oeste 56 Oeste 0 -- -- 41
2020-09-24 18:00:00 17.6 41 Oeste 57 Oeste 0 -- -- 38
2020-09-24 17:00:00 18.1 41 Oeste 63 Oeste 0 -- -- 38
2020-09-24 16:00:00 18.4 45 Oeste 64 Oeste 0 -- -- 39
2020-09-24 15:00:00 17.5 41 Oeste 58 Oeste 0 -- -- 47
2020-09-24 14:00:00 16.7 37 Oeste 57 Oeste 0 -- -- 55
2020-09-24 13:00:00 15.6 34 Oeste 46 Oeste 0 -- -- 62
2020-09-24 12:00:00 14.2 23 Oeste 30 Oeste 0 -- -- 71
2020-09-24 11:00:00 12.3 18 Oeste 25 Oeste 0 -- -- 83
2020-09-24 10:00:00 11.8 18 Oeste 23 Oeste 0 -- -- 88
2020-09-24 09:00:00 10.2 12 Oeste 22 Oeste 0 -- -- 94
2020-09-24 08:00:00 9.9 17 Oeste 23 Oeste 0 -- -- 94
2020-09-24 07:00:00 10.3 17 Oeste 25 Oeste 0 -- -- 93
2020-09-24 06:00:00 10.3 13 Oeste 26 Oeste 0 -- -- 92
2020-09-24 05:00:00 11.9 18 Oeste 28 Oeste 0 -- -- 86
2020-09-24 04:00:00 11.8 21 Oeste 28 Oeste 0 -- -- 85
2020-09-24 03:00:00 12.1 16 Oeste 23 Oeste 0 -- -- 85
2020-09-24 02:00:00 12.5 18 Oeste 27 Oeste 0 -- -- 83
2020-09-24 01:00:00 13 18 Oeste 29 Oeste 0 -- -- 79
2020-09-24 00:00:00 13.8 21 Oeste 28 Oeste 0 -- -- 77
2020-09-23 23:00:00 14.8 19 Oeste 25 Oeste 0 -- -- 76
2020-09-23 22:00:00 14.4 18 Oeste 31 Oeste 0 -- -- 74
2020-09-23 21:00:00 15.2 22 Oeste 31 Oeste 0 -- -- 68
2020-09-23 20:00:00 16.1 23 Oeste 37 Oeste 0 -- -- 67
2020-09-23 19:00:00 17.6 28 Oeste 40 Oeste 0 -- -- 64
2020-09-23 18:00:00 18.1 29 Oeste 42 Oeste 0 -- -- 59
2020-09-23 17:00:00 19.5 29 Oeste 44 Oeste 0 -- -- 55
2020-09-23 16:00:00 20.1 29 Oeste 44 Oeste 0 -- -- 51
2020-09-23 15:00:00 19.4 29 Oeste 44 Oeste 0 -- -- 56
2020-09-23 14:00:00 18.6 28 Oeste 41 Oeste 0 -- -- 60
2020-09-23 13:00:00 17.6 23 Oeste 34 Oeste 0 -- -- 66
2020-09-23 12:00:00 15.8 20 Oeste 30 Oeste 0 -- -- 85
2020-09-23 11:00:00 14.3 23 Oeste 31 Oeste 0 -- -- 88
2020-09-23 10:00:00 14 19 Sudoeste 24 Sudoeste 0 -- -- 92
2020-09-23 09:00:00 12.8 13 Sudoeste 17 Sudoeste 0 -- -- 95
2020-09-23 08:00:00 12 12 Sudoeste 15 Sudoeste 0 -- -- 95
2020-09-23 07:00:00 11.3 12 Sudoeste 17 Oeste 0 -- -- 94
2020-09-23 06:00:00 13.1 15 Oeste 20 Oeste 0 -- -- 92
2020-09-23 05:00:00 11.6 11 Sudoeste 15 Sudoeste 0 -- -- 94
2020-09-23 04:00:00 12.2 12 Sudoeste 18 Oeste 0 -- -- 92
2020-09-23 03:00:00 14.1 14 Oeste 20 Oeste 0 -- -- 82
2020-09-23 02:00:00 14.4 14 Oeste 20 Oeste 0 -- -- 76
2020-09-23 01:00:00 14.8 14 Oeste 19 Oeste 0 -- -- 75
2020-09-23 00:00:00 14.6 15 Oeste 26 Oeste 0 -- -- 73
2020-09-22 23:00:00 14.8 16 Oeste 21 Oeste 0 -- -- 68
2020-09-22 22:00:00 13 14 Oeste 16 Oeste 0 -- -- 75
2020-09-22 21:00:00 13.5 11 Sudoeste 17 Oeste 0 -- -- 71
2020-09-22 20:00:00 16.7 13 Oeste 23 Oeste 0 -- -- 53
2020-09-22 19:00:00 18 17 Oeste 26 Oeste 0 -- -- 47
2020-09-22 18:00:00 19.5 14 Oeste 22 Oeste 0 -- -- 46
2020-09-22 17:00:00 19 9 Oeste 19 Oeste 0 -- -- 51
2020-09-22 16:00:00 17.8 8 Noroeste 21 Oeste 0 -- -- 56
2020-09-22 15:00:00 17.3 12 Oeste 24 Oeste 0 -- -- 56
2020-09-22 14:00:00 15.9 13 Oeste 22 Oeste 0 -- -- 69
2020-09-22 13:00:00 15.5 11 Oeste 19 Oeste 0 -- -- 73
2020-09-22 12:00:00 12.6 10 Oeste 17 Sudoeste 0 -- -- 96
2020-09-22 11:00:00 11.4 9 Oeste 13 Oeste 0 -- -- 98
2020-09-22 10:00:00 10.9 8 Sudoeste 12 Sudoeste 0 -- -- 98
2020-09-22 09:00:00 9.7 6 Sur 9 Sudoeste 0 -- -- 98
2020-09-22 08:00:00 9.1 5 Sur 8 Sur 0 -- -- 98
2020-09-22 07:00:00 10.1 8 Este 10 Este 0 -- -- 97
2020-09-22 06:00:00 10.1 9 Este 15 Este 0 -- -- 97
2020-09-22 05:00:00 10.4 10 Este 13 Este 0 -- -- 96
2020-09-22 04:00:00 10.8 7 Este 13 Este 0 -- -- 95
2020-09-22 03:00:00 11.4 11 Este 14 Este 0 -- -- 93
2020-09-22 02:00:00 12.3 12 Este 19 Este 0 -- -- 89
2020-09-22 01:00:00 13.2 13 Este 19 Este 0 -- -- 86
2020-09-22 00:00:00 13.5 13 Este 15 Este 0 -- -- 91
2020-09-21 23:00:00 13.9 13 Este 18 Este 0 -- -- 87
2020-09-21 22:00:00 14.6 9 Este 21 Este 0 -- -- 78
2020-09-21 21:00:00 15.8 8 Nordeste 19 Nordeste 0 -- -- 68
2020-09-21 20:00:00 18.2 5 Sudoeste 14 Sudoeste 0 -- -- 51
2020-09-21 19:00:00 19.8 9 Sudoeste 16 Sudoeste 0 -- -- 45
2020-09-21 18:00:00 20 6 Oeste 20 Oeste 0 -- -- 46
2020-09-21 17:00:00 21.2 8 Sudoeste 28 Noroeste 0 -- -- 43
2020-09-21 16:00:00 20.8 4 Sudeste 19 Sudoeste 0 -- -- 47
2020-09-21 15:00:00 19.1 5 Sudoeste 17 Oeste 0 -- -- 56
2020-09-21 14:00:00 18.3 7 Sudoeste 16 Sudoeste 0 -- -- 61
2020-09-21 13:00:00 16 9 Sur 16 Sudoeste 0 -- -- 73
2020-09-21 12:00:00 14.4 5 Sudeste 13 Sur 0 -- -- 85
2020-09-21 11:00:00 13 8 Sur 15 Sudoeste 0 -- -- 96
2020-09-21 10:00:00 13 8 Sur 13 Sudoeste 0 -- -- 97
2020-09-21 09:00:00 11.7 6 Sur 12 Sur 0 -- -- 97
2020-09-21 08:00:00 11.6 6 Sur 10 Sur 0 -- -- 97
2020-09-21 07:00:00 10.1 9 Sudoeste 11 Sur 0 -- -- 97
2020-09-21 06:00:00 10 5 Sudoeste 6 Sudoeste 0 -- -- 97
2020-09-21 05:00:00 11.6 0 Calma -- -- 0 -- -- 97
2020-09-21 04:00:00 11.7 3 Oeste 7 Oeste 0 -- -- 97
2020-09-21 03:00:00 12 3 Noroeste 5 Norte 0 -- -- 97
2020-09-21 02:00:00 12.4 3 Oeste 5 Noroeste 0 -- -- 97
2020-09-21 01:00:00 12.4 4 Oeste 6 Noroeste 0 -- -- 97
2020-09-21 00:00:00 12.8 7 Norte 12 Noroeste 0 -- -- 96
2020-09-20 23:00:00 14.1 11 Noroeste 15 Oeste 0 -- -- 95
2020-09-20 22:00:00 14.4 10 Noroeste 15 Noroeste 0 -- -- 92
2020-09-20 21:00:00 14.9 11 Noroeste 14 Noroeste 0 -- -- 92
2020-09-20 20:00:00 15.9 10 Norte 17 Norte 0 -- -- 82
2020-09-20 19:00:00 17.4 12 Noroeste 17 Noroeste 0 -- -- 75
2020-09-20 18:00:00 17.5 8 Noroeste 15 Oeste 0 -- -- 72
2020-09-20 17:00:00 18.1 11 Oeste 26 Noroeste 0 -- -- 78
2020-09-20 16:00:00 16 18 Noroeste 28 Oeste 0 -- -- 88
2020-09-20 15:00:00 16 15 Noroeste 28 Oeste 0 -- -- 91
2020-09-20 14:00:00 15.4 21 Noroeste 30 Oeste 0 -- -- 87
2020-09-20 13:00:00 16.9 18 Sudoeste 28 Oeste 0 -- -- 82
2020-09-20 12:00:00 15.6 18 Oeste 24 Oeste 0 -- -- 89
2020-09-20 11:00:00 14.4 15 Sudoeste 20 Sudoeste 0 -- -- 96
2020-09-20 10:00:00 13.9 17 Oeste 22 Oeste 0 -- -- 97
2020-09-20 09:00:00 13.4 10 Sudoeste 14 Sudoeste 0 -- -- 97
2020-09-20 08:00:00 13.6 8 Sudoeste 10 Sudoeste 0 -- -- 97
2020-09-20 07:00:00 13.4 7 Sudoeste 10 Oeste 0 -- -- 97
2020-09-20 06:00:00 13.5 6 Oeste 12 Oeste 0 -- -- 96
2020-09-20 05:00:00 13.7 5 Oeste 10 Oeste 0 -- -- 96
2020-09-20 04:00:00 13.6 5 Sudoeste 8 Sudoeste 0 -- -- 96
2020-09-20 03:00:00 13.4 5 Sudoeste 14 Sudoeste 0 -- -- 96
2020-09-20 02:00:00 13.1 8 Sudoeste 14 Sudoeste 0 -- -- 96
2020-09-20 01:00:00 11.9 11 Sudoeste 18 Oeste 0 -- -- 95
2020-09-20 00:00:00 12.9 16 Sudoeste 21 Oeste 0 -- -- 91
2020-09-19 23:00:00 13.5 17 Oeste 31 Oeste 0 -- -- 86
2020-09-19 22:00:00 14.2 22 Oeste 36 Oeste 0 -- -- 79
2020-09-19 21:00:00 14.9 23 Oeste 32 Oeste 0 -- -- 78
2020-09-19 20:00:00 15.5 21 Oeste 33 Oeste 0 -- -- 79
2020-09-19 19:00:00 15.3 21 Oeste 41 Oeste 0 -- -- 85
2020-09-19 18:00:00 15.6 14 Oeste 33 Oeste 0 -- -- 87
2020-09-19 17:00:00 13.9 23 Oeste 38 Oeste 0 -- -- 93
2020-09-19 16:00:00 16.6 24 Oeste 32 Oeste 0 -- -- 73
2020-09-19 15:00:00 15.9 24 Oeste 37 Oeste 0 -- -- 80
2020-09-19 14:00:00 14.2 25 Oeste 38 Oeste 0 -- -- 95
2020-09-19 13:00:00 13.5 28 Oeste 37 Oeste 0 -- -- 96
2020-09-19 12:00:00 13.2 19 Oeste 24 Oeste 0 -- -- 98
2020-09-19 11:00:00 12.2 11 Oeste 13 Noroeste 0 -- -- 98
2020-09-19 10:00:00 12.3 8 Oeste 15 Sudeste 0 -- -- 98
2020-09-19 09:00:00 11.9 11 Sudeste 24 Sur 0 -- -- 98
2020-09-19 08:00:00 11.8 21 Sur 28 Sur 0 -- -- 98
2020-09-19 07:00:00 11.9 6 Sudeste 14 Sudeste 0 -- -- 96
2020-09-19 06:00:00 11.6 6 Sudeste 12 Sudeste 0 -- -- 96
2020-09-19 05:00:00 11.9 9 Sur 17 Sur 0 -- -- 96
2020-09-19 04:00:00 12.1 14 Sur 18 Sur 0 -- -- 95
2020-09-19 03:00:00 12.1 7 Sudoeste 19 Sur 0 -- -- 93
2020-09-19 02:00:00 12 13 Sur 18 Sur 0 -- -- 91
2020-09-19 01:00:00 12.1 13 Sudeste 19 Sudeste 0 -- -- 91
2020-09-19 00:00:00 12.6 5 Sudeste 15 Sur 0 -- -- 85
2020-09-18 23:00:00 12.1 12 Sudoeste 24 Sur 0 -- -- 90
2020-09-18 22:00:00 12.8 13 Sur 23 Sur 0 -- -- 82
2020-09-18 21:00:00 13.8 15 Sur 46 Sur 0 -- -- 76
2020-09-18 20:00:00 14.9 36 Sur 55 Sur 0 -- -- 77
2020-09-18 19:00:00 19.7 6 Sur 16 Sudoeste 0 -- -- 45
2020-09-18 18:00:00 20.6 12 Sudoeste 26 Sur 0 -- -- 43
2020-09-18 17:00:00 20.9 15 Sudoeste 27 Sur 0 -- -- 43
2020-09-18 16:00:00 22 18 Sur 36 Sudoeste 0 -- -- 43
2020-09-18 15:00:00 20.1 21 Sudoeste 31 Sudoeste 0 -- -- 47
2020-09-18 14:00:00 20.9 20 Sur 34 Sur 0 -- -- 51
2020-09-18 13:00:00 19.1 18 Sur 34 Sur 0 -- -- 56
2020-09-18 12:00:00 17.3 12 Sur 28 Sudeste 0 -- -- 70
2020-09-18 11:00:00 14.2 12 Sudeste 30 Sur 0 -- -- 87
2020-09-18 10:00:00 12.9 12 Sudeste 31 Sur 0 -- -- 97
2020-09-18 09:00:00 12.2 2 Sur 27 Noroeste 0 -- -- 95
2020-09-18 08:00:00 13.5 11 Sudoeste 18 Sudeste 0 -- -- 98
2020-09-18 07:00:00 13.9 9 Sudeste 30 Sur 0 -- -- 98
2020-09-18 06:00:00 14.1 9 Sudeste 30 Sur 0 -- -- 98
2020-09-18 05:00:00 14.5 9 Sudeste 25 Sudeste 0 -- -- 91
2020-09-18 04:00:00 15.1 18 Este 28 Sudeste 0 -- -- 87
2020-09-18 03:00:00 15.2 10 Sudeste 33 Sudeste 0 -- -- 87
2020-09-18 02:00:00 15.1 10 Sudeste 32 Sudoeste 0 -- -- 86
2020-09-18 01:00:00 16 35 Sudoeste 61 Sudoeste 0 -- -- 78
2020-09-18 00:00:00 17.5 26 Sur 53 Sur 0 -- -- 63
2020-09-17 23:00:00 20.3 16 Sur 27 Sur 0 -- -- 59
2020-09-17 22:00:00 20.7 14 Sur 26 Sur 0 -- -- 56
2020-09-17 21:00:00 21.1 15 Sur 34 Sur 0 -- -- 56
2020-09-17 20:00:00 22.5 23 Sur 39 Sur 0 -- -- 49
2020-09-17 19:00:00 24.6 26 Sur 37 Sur 0 -- -- 42
2020-09-17 18:00:00 25.8 25 Sur 35 Sur 0 -- -- 38
2020-09-17 17:00:00 25.5 25 Sur 35 Sur 0 -- -- 39
2020-09-17 16:00:00 25.9 16 Sur 30 Sur 0 -- -- 44
2020-09-17 15:00:00 24.1 14 Sur 31 Sudoeste 0 -- -- 48
2020-09-17 14:00:00 22.1 21 Sudoeste 31 Sudoeste 0 -- -- 55
2020-09-17 13:00:00 20.7 16 Sur 27 Sur 0 -- -- 60
2020-09-17 12:00:00 21.4 13 Sudeste 21 Sudeste 0 -- -- 65
2020-09-17 11:00:00 18.4 7 Sudeste 15 Sudeste 0 -- -- 74
2020-09-17 10:00:00 19.2 10 Sudeste 14 Sudeste 0 -- -- 73
2020-09-17 09:00:00 16.4 5 Sudeste 13 Este 0 -- -- 85
2020-09-17 08:00:00 15.7 9 Este 12 Este 0 -- -- 89
2020-09-17 07:00:00 16 5 Este 10 Sudeste 0 -- -- 86
2020-09-17 06:00:00 16.3 9 Este 14 Sudeste 0 -- -- 79
2020-09-17 05:00:00 16.5 7 Este 10 Noroeste 0 -- -- 77
2020-09-17 04:00:00 17 3 Oeste 24 Nordeste 0 -- -- 72
2020-09-17 03:00:00 17.2 20 Sur 39 Sudoeste 0 -- -- 71
2020-09-17 02:00:00 19.9 8 Sur 17 Sudeste 0 -- -- 54
2020-09-17 01:00:00 20.2 13 Este 21 Este 0 -- -- 56
2020-09-17 00:00:00 19.7 16 Este 19 Este 0 -- -- 57
2020-09-16 23:00:00 20.5 14 Este 19 Este 0 -- -- 54
2020-09-16 22:00:00 21.4 11 Este 22 Nordeste 0 -- -- 49
2020-09-16 21:00:00 21.5 13 Nordeste 15 Nordeste 0 -- -- 47
2020-09-16 20:00:00 23.6 9 Norte 10 Sudeste 0 -- -- 38
2020-09-16 19:00:00 26.7 8 Este 14 Este 0 -- -- 31
2020-09-16 18:00:00 28 8 Sudeste 22 Sudeste 0 -- -- 29
2020-09-16 17:00:00 28.1 8 Sudeste 24 Sudeste 0 -- -- 30
2020-09-16 16:00:00 27.4 7 Este 29 Este 0 -- -- 35
2020-09-16 15:00:00 27.7 5 Sudeste 20 Sudeste 0 -- -- 35
2020-09-16 14:00:00 25.7 10 Este 19 Este 0 -- -- 39
2020-09-16 13:00:00 24.9 8 Este 16 Este 0 -- -- 41
2020-09-16 12:00:00 22.6 11 Este 15 Este 0 -- -- 50
2020-09-16 11:00:00 19.6 12 Este 14 Sudeste 0 -- -- 63
2020-09-16 10:00:00 16.9 9 Sudeste 12 Este 0 -- -- 73
2020-09-16 09:00:00 15.1 7 Sudeste 9 Sudeste 0 -- -- 82
2020-09-16 08:00:00 12.5 7 Sudeste 13 Sur 0 -- -- 83
2020-09-16 07:00:00 14.1 10 Sudoeste 12 Sudoeste 0 -- -- 70
2020-09-16 06:00:00 15.3 5 Sudoeste 6 Sudoeste 0 -- -- 64
2020-09-16 05:00:00 16.6 4 Sudoeste 6 Sudoeste 0 -- -- 57
2020-09-16 04:00:00 17.1 4 Oeste 9 Oeste 0 -- -- 56
2020-09-16 03:00:00 15.9 9 Oeste 11 Sudoeste 0 -- -- 67
2020-09-16 02:00:00 16.5 10 Sudoeste 13 Oeste 0 -- -- 68
2020-09-16 01:00:00 16.2 12 Sudoeste 14 Sudoeste 0 -- -- 71
2020-09-16 00:00:00 18.6 5 Sur 9 Sur 0 -- -- 61
2020-09-15 23:00:00 19.4 5 Sudeste 10 Sur 0 -- -- 48
2020-09-15 22:00:00 20.9 8 Sur 10 Sur 0 -- -- 45
2020-09-15 21:00:00 21.1 3 Sur 7 Sur 0 -- -- 46
2020-09-15 20:00:00 23.2 5 Sur 15 Sur 0 -- -- 44
2020-09-15 19:00:00 24.2 9 Sudoeste 19 Sudoeste 0 -- -- 42
2020-09-15 18:00:00 24.7 12 Sudoeste 26 Sudoeste 0 -- -- 40
2020-09-15 17:00:00 24.2 17 Sudoeste 24 Sudoeste 0 -- -- 42
2020-09-15 16:00:00 25.1 18 Sudoeste 28 Sudoeste 0 -- -- 42
2020-09-15 15:00:00 24.9 12 Sudoeste 25 Sudoeste 0 -- -- 44
2020-09-15 14:00:00 24 8 Sudoeste 19 Sudoeste 0 -- -- 49
2020-09-15 13:00:00 22.9 10 Sudoeste 18 Sudoeste 0 -- -- 55
2020-09-15 12:00:00 21 9 Sur 14 Sudeste 0 -- -- 64
2020-09-15 11:00:00 19.1 8 Sur 15 Sur 0 -- -- 71
2020-09-15 10:00:00 17 5 Sudeste 19 Sudeste 0 -- -- 82
2020-09-15 09:00:00 15.2 10 Este 14 Sudeste 0 -- -- 92
2020-09-15 08:00:00 13.4 9 Sudeste 15 Sudeste 0 -- -- 96
2020-09-15 07:00:00 13.4 10 Sudeste 20 Sudeste 0 -- -- 95
2020-09-15 06:00:00 13.7 0 Calma 19 Sudeste 0 -- -- 92
2020-09-15 05:00:00 14.3 13 Sudeste 22 Sudeste 0 -- -- 91
2020-09-15 04:00:00 15.1 2 Este 22 Sur 0 -- -- 85
2020-09-15 03:00:00 15.1 13 Sur 26 Sur 0 -- -- 88
2020-09-15 02:00:00 15.1 8 Este 19 Sudoeste 0 -- -- 87
2020-09-15 01:00:00 14.6 24 Sur 55 Sudoeste 0 -- -- 88
2020-09-15 00:00:00 15.7 15 Sur 66 Sudoeste 0 -- -- 94
2020-09-14 23:00:00 17 17 Nordeste 23 Norte 0 -- -- 86
2020-09-14 22:00:00 16.8 16 Nordeste 20 Nordeste 0 -- -- 89
2020-09-14 21:00:00 16.3 13 Norte 36 Oeste 0 -- -- 92
2020-09-14 20:00:00 18.1 38 Sudoeste 77 Sudoeste 0 -- -- 70
2020-09-14 19:00:00 27.5 12 Sur 27 Sur 0 -- -- 39
2020-09-14 18:00:00 28.1 14 Sudoeste 30 Sur 0 -- -- 38
2020-09-14 17:00:00 28.1 13 Sudoeste 29 Sur 0 -- -- 40
2020-09-14 16:00:00 27.6 9 Sur 21 Sur 0 -- -- 42
2020-09-14 15:00:00 25.3 13 Sur 19 Sudoeste 0 -- -- 47
2020-09-14 14:00:00 23.9 6 Sudeste 20 Sudoeste 0 -- -- 49
2020-09-14 13:00:00 23.3 17 Sudoeste 22 Sudoeste 0 -- -- 49
2020-09-14 12:00:00 23.9 13 Sur 26 Sur 0 -- -- 49
2020-09-14 11:00:00 23.6 18 Sur 28 Sur 0 -- -- 49
2020-09-14 10:00:00 21.4 10 Sudeste 19 Sudeste 0 -- -- 54
2020-09-14 09:00:00 18.4 13 Sudeste 19 Sudeste 0 -- -- 60
2020-09-14 08:00:00 15.7 7 Sudeste 19 Sudeste 0 -- -- 62
2020-09-14 07:00:00 16.2 6 Sudeste 34 Sudeste 0 -- -- 56
2020-09-14 06:00:00 17.4 6 Sudeste 18 Sudeste 0 -- -- 52
2020-09-14 05:00:00 18.4 7 Sudeste 21 Sur 0 -- -- 49
2020-09-14 04:00:00 18.5 9 Sudeste 17 Sudeste 0 -- -- 48
2020-09-14 03:00:00 19.3 6 Sudeste 22 Sur 0 -- -- 46
2020-09-14 02:00:00 18.4 15 Sudoeste 19 Sur 0 -- -- 46
2020-09-14 01:00:00 20.6 17 Sur 21 Sur 0 -- -- 43
2020-09-14 00:00:00 21.6 18 Sur 22 Sur 0 -- -- 41
2020-09-13 23:00:00 22.4 15 Sur 20 Sur 0 -- -- 39
2020-09-13 22:00:00 24.1 13 Sur 17 Sur 0 -- -- 35
2020-09-13 21:00:00 25.7 5 Nordeste 6 Este 0 -- -- 33
2020-09-13 20:00:00 29.8 3 Sudoeste 8 Sudoeste 0 -- -- 30
2020-09-13 19:00:00 32 8 Sudoeste 21 Sudoeste 0 -- -- 29
2020-09-13 18:00:00 31.7 6 Sudoeste 26 Oeste 0 -- -- 30
2020-09-13 17:00:00 30.8 18 Sudoeste 29 Sudoeste 0 -- -- 31
2020-09-13 16:00:00 30.8 14 Sudoeste 28 Oeste 0 -- -- 31
2020-09-13 15:00:00 32 14 Sudoeste 29 Sudoeste 0 -- -- 30
2020-09-13 14:00:00 30.4 12 Sudoeste 24 Sur 0 -- -- 33
2020-09-13 13:00:00 28.6 12 Sur 25 Sur 0 -- -- 37
2020-09-13 12:00:00 26.2 8 Sudeste 17 Sur 0 -- -- 41
2020-09-13 11:00:00 22.5 12 Este 21 Este 0 -- -- 47
2020-09-13 10:00:00 19.4 14 Este 19 Sudeste 0 -- -- 50
2020-09-13 09:00:00 16.2 12 Este 18 Este 0 -- -- 52
2020-09-13 08:00:00 13.1 13 Este 19 Este 0 -- -- 55
2020-09-13 07:00:00 13.6 14 Este 19 Este 0 -- -- 52
2020-09-13 06:00:00 13.6 13 Este 18 Este 0 -- -- 51
2020-09-13 05:00:00 15.5 16 Este 21 Este 0 -- -- 48
2020-09-13 04:00:00 15.1 17 Este 19 Este 0 -- -- 47
2020-09-13 03:00:00 15.6 14 Este 16 Este 0 -- -- 45
2020-09-13 02:00:00 16.3 12 Este 19 Este 0 -- -- 43
2020-09-13 01:00:00 17.7 15 Este 27 Este 0 -- -- 38
2020-09-13 00:00:00 19.9 18 Este 28 Este 0 -- -- 37
2020-09-12 23:00:00 20.6 19 Este 29 Este 0 -- -- 35
2020-09-12 22:00:00 20.9 15 Este 23 Este 0 -- -- 32
2020-09-12 21:00:00 20.9 12 Este 24 Nordeste 0 -- -- 28
2020-09-12 20:00:00 25.6 14 Nordeste 26 Nordeste 0 -- -- 24
2020-09-12 19:00:00 28.7 13 Nordeste 19 Nordeste 0 -- -- 22
2020-09-12 18:00:00 29.7 8 Este 34 Este 0 -- -- 22
2020-09-12 17:00:00 30.4 4 Este 23 Sudeste 0 -- -- 23
2020-09-12 16:00:00 29.7 8 Nordeste 26 Este 0 -- -- 24
2020-09-12 15:00:00 29 12 Este 26 Sudeste 0 -- -- 25
2020-09-12 14:00:00 28.1 9 Este 23 Este 0 -- -- 27
2020-09-12 13:00:00 26.1 13 Este 22 Este 0 -- -- 35
2020-09-12 12:00:00 23.7 10 Este 19 Este 0 -- -- 45
2020-09-12 11:00:00 19.6 10 Este 21 Este 0 -- -- 64
2020-09-12 10:00:00 16.4 15 Este 26 Este 0 -- -- 75
2020-09-12 09:00:00 14.2 19 Este 23 Este 0 -- -- 82
2020-09-12 08:00:00 11.7 16 Este 22 Este 0 -- -- 87
2020-09-12 07:00:00 12.1 19 Este 22 Este 0 -- -- 84
2020-09-12 06:00:00 12.5 17 Este 19 Este 0 -- -- 83
2020-09-12 05:00:00 13.5 15 Este 18 Este 0 -- -- 82
2020-09-12 04:00:00 14.2 15 Este 19 Este 0 -- -- 80
2020-09-12 03:00:00 15.5 16 Este 20 Este 0 -- -- 75
2020-09-12 02:00:00 17 17 Este 21 Este 0 -- -- 70
2020-09-12 01:00:00 17.2 15 Este 21 Este 0 -- -- 66
2020-09-12 00:00:00 18.5 14 Este 25 Este 0 -- -- 53
2020-09-11 23:00:00 19.6 14 Este 25 Este 0 -- -- 41
2020-09-11 22:00:00 19.9 10 Este 19 Este 0 -- -- 35
2020-09-11 21:00:00 21.6 8 Nordeste 12 Nordeste 0 -- -- 30
2020-09-11 20:00:00 25.4 10 Nordeste 17 Nordeste 0 -- -- 27
2020-09-11 19:00:00 27.3 8 Nordeste 19 Nordeste 0 -- -- 28
2020-09-11 18:00:00 28.1 9 Este 23 Nordeste 0 -- -- 30
2020-09-11 17:00:00 27.8 10 Norte 21 Norte 0 -- -- 33
2020-09-11 16:00:00 27.2 12 Norte 24 Norte 0 -- -- 35
2020-09-11 15:00:00 26.9 5 Noroeste 21 Nordeste 0 -- -- 37
2020-09-11 14:00:00 24.9 11 Nordeste 21 Norte 0 -- -- 40
2020-09-11 13:00:00 24.3 8 Nordeste 17 Este 0 -- -- 45
2020-09-11 12:00:00 22.3 8 Este 19 Este 0 -- -- 52
2020-09-11 11:00:00 19.3 13 Este 18 Este 0 -- -- 64
2020-09-11 10:00:00 16.7 12 Nordeste 17 Nordeste 0 -- -- 73
2020-09-11 09:00:00 14.6 10 Este 19 Este 0 -- -- 81
2020-09-11 08:00:00 12 17 Este 21 Este 0 -- -- 87
2020-09-11 07:00:00 12 18 Este 23 Este 0 -- -- 86
2020-09-11 06:00:00 12.6 20 Este 24 Este 0 -- -- 82
2020-09-11 05:00:00 13.5 21 Este 24 Este 0 -- -- 75
2020-09-11 04:00:00 14.5 19 Este 23 Este 0 -- -- 68
2020-09-11 03:00:00 15.2 19 Este 26 Este 0 -- -- 65
2020-09-11 02:00:00 15.9 20 Este 26 Este 0 -- -- 61
2020-09-11 01:00:00 17.1 18 Este 26 Este 0 -- -- 58
2020-09-11 00:00:00 18.2 19 Este 25 Este 0 -- -- 54
2020-09-10 23:00:00 18.9 17 Este 22 Este 0 -- -- 49
2020-09-10 22:00:00 20 11 Este 18 Este 0 -- -- 42
2020-09-10 21:00:00 21.2 8 Nordeste 13 Nordeste 0 -- -- 38
2020-09-10 20:00:00 24.9 10 Nordeste 18 Nordeste 0 -- -- 33
2020-09-10 19:00:00 26.2 10 Norte 21 Norte 0 -- -- 31
2020-09-10 18:00:00 27.2 7 Norte 18 Nordeste 0 -- -- 32
2020-09-10 17:00:00 27.4 3 Norte 23 Norte 0 -- -- 34
2020-09-10 16:00:00 26.2 10 Norte 19 Norte 0 -- -- 35
2020-09-10 15:00:00 26.3 7 Nordeste 20 Nordeste 0 -- -- 37
2020-09-10 14:00:00 25.1 5 Este 21 Norte 0 -- -- 40
2020-09-10 13:00:00 23.7 5 Noroeste 15 Noroeste 0 -- -- 45
2020-09-10 12:00:00 22.2 3 Sur 10 Nordeste 0 -- -- 48
2020-09-10 11:00:00 20 6 Este 12 Este 0 -- -- 55
2020-09-10 10:00:00 17.4 8 Este 15 Este 0 -- -- 60
2020-09-10 09:00:00 15.1 4 Este 17 Este 0 -- -- 70
2020-09-10 08:00:00 11.8 15 Este 21 Este 0 -- -- 81
2020-09-10 07:00:00 12.1 19 Este 23 Este 0 -- -- 80
2020-09-10 06:00:00 12.3 19 Este 23 Este 0 -- -- 80
2020-09-10 05:00:00 12.9 19 Este 23 Este 0 -- -- 78
2020-09-10 04:00:00 13.3 17 Este 24 Este 0 -- -- 77
2020-09-10 03:00:00 13.9 16 Este 22 Este 0 -- -- 74
2020-09-10 02:00:00 14.4 15 Este 19 Este 0 -- -- 69
2020-09-10 01:00:00 15.5 15 Este 20 Este 0 -- -- 61
2020-09-10 00:00:00 16.2 14 Este 26 Este 0 -- -- 56
2020-09-09 23:00:00 18.8 20 Este 26 Nordeste 0 -- -- 52
2020-09-09 22:00:00 18.9 13 Nordeste 18 Nordeste 0 -- -- 51
2020-09-09 21:00:00 21.2 11 Nordeste 24 Nordeste 0 -- -- 39
2020-09-09 20:00:00 24.7 9 Norte 19 Norte 0 -- -- 31
2020-09-09 19:00:00 25.7 14 Norte 21 Nordeste 0 -- -- 31
2020-09-09 18:00:00 26.3 10 Nordeste 22 Norte 0 -- -- 30
2020-09-09 17:00:00 27.2 10 Nordeste 21 Nordeste 0 -- -- 30
2020-09-09 16:00:00 26.8 9 Nordeste 21 Nordeste 0 -- -- 31
2020-09-09 15:00:00 26.2 4 Este 19 Este 0 -- -- 31
2020-09-09 14:00:00 24.4 7 Norte 20 Norte 0 -- -- 34
2020-09-09 13:00:00 23.8 8 Noroeste 16 Norte 0 -- -- 35
2020-09-09 12:00:00 21.8 5 Este 15 Este 0 -- -- 39
2020-09-09 11:00:00 19.9 9 Este 21 Este 0 -- -- 45
2020-09-09 10:00:00 16.3 16 Sudeste 21 Este 0 -- -- 52
2020-09-09 09:00:00 13.9 13 Este 17 Este 0 -- -- 59
2020-09-09 08:00:00 9.6 15 Este 17 Este 0 -- -- 68
2020-09-09 07:00:00 10.9 14 Este 21 Sudeste 0 -- -- 61
2020-09-09 06:00:00 12 17 Sudeste 20 Sudeste 0 -- -- 58
2020-09-09 05:00:00 11.6 15 Este 19 Este 0 -- -- 58
2020-09-09 04:00:00 11.9 15 Este 21 Este 0 -- -- 53
2020-09-09 03:00:00 13 16 Este 22 Este 0 -- -- 49
2020-09-09 02:00:00 13.8 17 Este 23 Este 0 -- -- 47
2020-09-09 01:00:00 14.3 15 Este 21 Este 0 -- -- 44
2020-09-09 00:00:00 14.5 15 Este 22 Este 0 -- -- 42
2020-09-08 23:00:00 17 14 Este 19 Este 0 -- -- 40
2020-09-08 22:00:00 16.9 10 Este 17 Este 0 -- -- 39
2020-09-08 21:00:00 18 12 Nordeste 21 Nordeste 0 -- -- 36
2020-09-08 20:00:00 23.6 8 Este 22 Sudeste 0 -- -- 25
2020-09-08 19:00:00 24.8 12 Sudeste 29 Este 0 -- -- 23
2020-09-08 18:00:00 25.4 17 Este 33 Sudeste 0 -- -- 22
2020-09-08 17:00:00 25 13 Sudeste 33 Sudeste 0 -- -- 22
2020-09-08 16:00:00 25.5 15 Este 36 Este 0 -- -- 23
2020-09-08 15:00:00 23.9 15 Este 34 Sudeste 0 -- -- 31
2020-09-08 14:00:00 22.1 22 Este 32 Este 0 -- -- 34
2020-09-08 13:00:00 20.5 20 Este 36 Sudeste 0 -- -- 39
2020-09-08 12:00:00 18.5 20 Este 33 Este 0 -- -- 43
2020-09-08 11:00:00 15.6 19 Este 30 Este 0 -- -- 59
2020-09-08 10:00:00 12.7 19 Este 27 Este 0 -- -- 76
2020-09-08 09:00:00 9.5 17 Este 24 Nordeste 0 -- -- 90
2020-09-08 08:00:00 7.2 15 Nordeste 25 Este 0 -- -- 97
2020-09-08 07:00:00 7.1 20 Este 35 Este 0 -- -- 96
2020-09-08 06:00:00 7.7 30 Este 37 Este 0 -- -- 94
2020-09-08 05:00:00 8 26 Este 39 Este 0 -- -- 90
2020-09-08 04:00:00 8.8 28 Este 39 Este 0 -- -- 85
2020-09-08 03:00:00 8.6 20 Nordeste 42 Este 0 -- -- 83
2020-09-08 02:00:00 9.3 30 Este 48 Este 0 -- -- 77
2020-09-08 01:00:00 9.9 28 Este 49 Nordeste 0 -- -- 69
2020-09-08 00:00:00 10.5 35 Nordeste 45 Nordeste 0 -- -- 62
2020-09-07 23:00:00 11.7 31 Nordeste 46 Nordeste 0 -- -- 56
2020-09-07 22:00:00 13.1 26 Este 42 Este 0 -- -- 52
2020-09-07 21:00:00 14.6 25 Nordeste 42 Nordeste 0 -- -- 50
2020-09-07 20:00:00 17.2 27 Nordeste 41 Nordeste 0 -- -- 46
2020-09-07 19:00:00 18.7 27 Nordeste 45 Nordeste 0 -- -- 45
2020-09-07 18:00:00 19.7 27 Nordeste 49 Nordeste 0 -- -- 43
2020-09-07 17:00:00 20.1 29 Nordeste 63 Nordeste 0 -- -- 42
2020-09-07 16:00:00 20.4 28 Este 40 Este 0 -- -- 42
2020-09-07 15:00:00 19.5 28 Nordeste 46 Nordeste 0 -- -- 44
2020-09-07 14:00:00 18.7 26 Nordeste 45 Nordeste 0 -- -- 46
2020-09-07 13:00:00 17.3 31 Nordeste 47 Nordeste 0 -- -- 51
2020-09-07 12:00:00 15.8 28 Nordeste 49 Nordeste 0 -- -- 63
2020-09-07 11:00:00 14.6 34 Este 44 Este 0 -- -- 66
2020-09-07 10:00:00 12.8 28 Nordeste 39 Nordeste 0 -- -- 71
2020-09-07 09:00:00 11 19 Este 32 Nordeste 0 -- -- 83
2020-09-07 08:00:00 9.2 21 Este 29 Este 0 -- -- 92
2020-09-07 07:00:00 9.3 21 Este 28 Este 0 -- -- 92
2020-09-07 06:00:00 9.5 17 Este 27 Este 0 -- -- 92
2020-09-07 05:00:00 9.6 17 Este 27 Nordeste 0 -- -- 91
2020-09-07 04:00:00 9.8 18 Este 25 Este 0 -- -- 87
2020-09-07 03:00:00 10.4 19 Este 34 Este 0 -- -- 83
2020-09-07 02:00:00 10.9 24 Este 39 Este 0 -- -- 85
2020-09-07 01:00:00 11.1 28 Este 40 Nordeste 0 -- -- 83
2020-09-07 00:00:00 11.6 26 Este 38 Este 0 -- -- 78
2020-09-06 23:00:00 12 29 Este 40 Este 0 -- -- 71
2020-09-06 22:00:00 12.7 35 Este 45 Este 0 -- -- 67
2020-09-06 21:00:00 14.2 35 Este 49 Este 0 -- -- 60
2020-09-06 20:00:00 16.8 30 Nordeste 40 Nordeste 0 -- -- 52
2020-09-06 19:00:00 20.1 28 Nordeste 39 Este 0 -- -- 44
2020-09-06 18:00:00 21.9 27 Nordeste 42 Este 0 -- -- 43
2020-09-06 17:00:00 23 27 Este 41 Este 0 -- -- 44
2020-09-06 16:00:00 22.3 26 Nordeste 38 Nordeste 0 -- -- 46
2020-09-06 15:00:00 21.9 25 Nordeste 39 Este 0 -- -- 47
2020-09-06 14:00:00 21.8 25 Nordeste 35 Nordeste 0 -- -- 48
2020-09-06 13:00:00 20.4 24 Nordeste 39 Nordeste 0 -- -- 53
2020-09-06 12:00:00 18.9 26 Nordeste 36 Este 0 -- -- 59
2020-09-06 11:00:00 17.5 26 Este 41 Este 0 -- -- 66
2020-09-06 10:00:00 15 31 Nordeste 40 Este 0 -- -- 78
2020-09-06 09:00:00 13.4 26 Este 40 Este 0 -- -- 87
2020-09-06 08:00:00 12.2 31 Este 43 Este 0 -- -- 90
2020-09-06 07:00:00 12.2 30 Este 42 Este 0 -- -- 89
2020-09-06 06:00:00 12.6 32 Este 43 Este 0 -- -- 87
2020-09-06 05:00:00 13.2 28 Este 45 Este 0 -- -- 87
2020-09-06 04:00:00 13 33 Este 48 Este 0 -- -- 88
2020-09-06 03:00:00 13.2 37 Este 53 Este 0 -- -- 87
2020-09-06 02:00:00 13.8 33 Este 50 Este 0 -- -- 86
2020-09-06 01:00:00 14.2 41 Este 52 Este 0 -- -- 86
2020-09-06 00:00:00 14.2 36 Este 50 Este 0 -- -- 85
2020-09-05 23:00:00 14.8 35 Este 47 Este 0 -- -- 83
2020-09-05 22:00:00 15.5 32 Este 44 Nordeste 0 -- -- 81
2020-09-05 21:00:00 17 33 Nordeste 44 Nordeste 0 -- -- 73
2020-09-05 20:00:00 20.6 29 Nordeste 41 Este 0 -- -- 60
2020-09-05 19:00:00 24.1 29 Nordeste 44 Nordeste 0 -- -- 51
2020-09-05 18:00:00 27.5 27 Nordeste 39 Nordeste 0 -- -- 42
2020-09-05 17:00:00 28.4 20 Nordeste 32 Nordeste 0 -- -- 38
2020-09-05 16:00:00 28.8 17 Nordeste 30 Nordeste 0 -- -- 38
2020-09-05 15:00:00 28.1 18 Nordeste 32 Este 0 -- -- 41
2020-09-05 14:00:00 27.2 18 Nordeste 29 Nordeste 0 -- -- 43
2020-09-05 13:00:00 25.4 19 Este 30 Este 0 -- -- 47
2020-09-05 12:00:00 23.7 21 Este 35 Este 0 -- -- 52
2020-09-05 11:00:00 21.2 24 Este 35 Este 0 -- -- 58
2020-09-05 10:00:00 18.9 28 Este 38 Este 0 -- -- 62
2020-09-05 09:00:00 16.7 22 Este 27 Este 0 -- -- 64
2020-09-05 08:00:00 15.6 22 Este 27 Este 0 -- -- 63
2020-09-05 07:00:00 15.3 20 Este 24 Este 0 -- -- 61
2020-09-05 06:00:00 15.1 17 Este 19 Este 0 -- -- 64
2020-09-05 05:00:00 13.6 13 Nordeste 16 Nordeste 0 -- -- 66
2020-09-05 04:00:00 14.7 10 Noroeste 18 Este 0 -- -- 60
2020-09-05 03:00:00 18 17 Este 21 Este 0 -- -- 53
2020-09-05 02:00:00 18.4 19 Este 21 Este 0 -- -- 51
2020-09-05 01:00:00 18.3 15 Nordeste 19 Este 0 -- -- 48
2020-09-05 00:00:00 20.5 14 Este 22 Nordeste 0 -- -- 38
2020-09-04 23:00:00 21.7 11 Nordeste 13 Nordeste 0 -- -- 31
2020-09-04 22:00:00 23.9 6 Norte 7 Noroeste 0 -- -- 28
2020-09-04 21:00:00 24.7 6 Noroeste 14 Noroeste 0 -- -- 27
2020-09-04 20:00:00 29.1 10 Noroeste 20 Noroeste 0 -- -- 24
2020-09-04 19:00:00 30.8 14 Noroeste 24 Norte 0 -- -- 24
2020-09-04 18:00:00 31.3 13 Noroeste 29 Oeste 0 -- -- 24
2020-09-04 17:00:00 32.1 13 Noroeste 26 Norte 0 -- -- 24
2020-09-04 16:00:00 31.3 9 Norte 24 Noroeste 0 -- -- 25
2020-09-04 15:00:00 31.1 8 Sudoeste 26 Oeste 0 -- -- 25
2020-09-04 14:00:00 30.4 6 Sudoeste 18 Sudoeste 0 -- -- 28
2020-09-04 13:00:00 29 7 Sudoeste 19 Oeste 0 -- -- 30
2020-09-04 12:00:00 27.2 10 Sudoeste 24 Sur 0 -- -- 34
2020-09-04 11:00:00 24 17 Sur 23 Sur 0 -- -- 38
2020-09-04 10:00:00 20.5 9 Sudeste 15 Sudeste 0 -- -- 42
2020-09-04 09:00:00 17.7 8 Sudeste 16 Sudeste 0 -- -- 47
2020-09-04 08:00:00 13.3 13 Sudeste 22 Sudeste 0 -- -- 53
2020-09-04 07:00:00 12.3 14 Sudeste 23 Sudeste 0 -- -- 53
2020-09-04 06:00:00 13.5 14 Este 17 Este 0 -- -- 48
2020-09-04 05:00:00 13.3 14 Este 15 Este 0 -- -- 47
2020-09-04 04:00:00 13.6 14 Este 17 Este 0 -- -- 45
2020-09-04 03:00:00 16 14 Este 18 Este 0 -- -- 39
2020-09-04 02:00:00 16.6 12 Este 14 Este 0 -- -- 36
2020-09-04 01:00:00 16.8 11 Este 17 Este 0 -- -- 35
2020-09-04 00:00:00 20.9 6 Este 8 Este 0 -- -- 29
2020-09-03 23:00:00 22 6 Nordeste 7 Nordeste 0 -- -- 27
2020-09-03 22:00:00 23 3 Norte 6 Norte 0 -- -- 27
2020-09-03 21:00:00 23.4 5 Norte 6 Norte 0 -- -- 25
2020-09-03 20:00:00 28.2 2 Nordeste 12 Norte 0 -- -- 23
2020-09-03 19:00:00 29 4 Noroeste 14 Noroeste 0 -- -- 23
2020-09-03 18:00:00 28.3 5 Nordeste 17 Nordeste 0 -- -- 25
2020-09-03 17:00:00 28.1 6 Norte 23 Noroeste 0 -- -- 25
2020-09-03 16:00:00 28.4 9 Noroeste 42 Noroeste 0 -- -- 27
2020-09-03 15:00:00 26.9 7 Norte 18 Oeste 0 -- -- 31
2020-09-03 14:00:00 25.9 6 Noroeste 15 Noroeste 0 -- -- 34
2020-09-03 13:00:00 24 8 Norte 15 Norte 0 -- -- 36
2020-09-03 12:00:00 22.4 5 Este 10 Este 0 -- -- 34
2020-09-03 11:00:00 19.5 6 Este 12 Sudeste 0 -- -- 46
2020-09-03 10:00:00 15.8 8 Este 12 Sudeste 0 -- -- 59
2020-09-03 09:00:00 13.2 6 Este 11 Este 0 -- -- 74
2020-09-03 08:00:00 9.7 9 Este 15 Este 0 -- -- 87
2020-09-03 07:00:00 11 13 Este 20 Este 0 -- -- 80
2020-09-03 06:00:00 11.7 16 Este 21 Este 0 -- -- 74
2020-09-03 05:00:00 12.3 15 Este 20 Este 0 -- -- 72
2020-09-03 04:00:00 13.3 17 Este 21 Este 0 -- -- 68
2020-09-03 03:00:00 13.9 18 Este 23 Este 0 -- -- 66
2020-09-03 02:00:00 14.6 18 Este 59 Este 0 -- -- 61
2020-09-03 01:00:00 15.6 18 Este 26 Este 0 -- -- 55
2020-09-03 00:00:00 16.4 18 Este 26 Este 0 -- -- 50
2020-09-02 23:00:00 17.8 15 Este 23 Este 0 -- -- 46
2020-09-02 22:00:00 17 11 Este 14 Este 0 -- -- 43
2020-09-02 21:00:00 19.4 8 Nordeste 10 Nordeste 0 -- -- 36
2020-09-02 20:00:00 23.7 7 Nordeste 16 Este 0 -- -- 30
2020-09-02 19:00:00 24.6 8 Nordeste 21 Este 0 -- -- 30
2020-09-02 18:00:00 25 5 Nordeste 21 Nordeste 0 -- -- 31
2020-09-02 17:00:00 24.8 10 Este 20 Nordeste 0 -- -- 32
2020-09-02 16:00:00 24.6 6 Este 20 Nordeste 0 -- -- 33
2020-09-02 15:00:00 23.3 11 Norte 27 Norte 0 -- -- 34
2020-09-02 14:00:00 22.6 10 Este 39 Este 0 -- -- 35
2020-09-02 13:00:00 22 14 Este 29 Este 0 -- -- 39
2020-09-02 12:00:00 20.1 17 Este 35 Este 0 -- -- 45
2020-09-02 11:00:00 18.5 21 Este 34 Este 0 -- -- 49
2020-09-02 10:00:00 14.7 24 Este 34 Este 0 -- -- 65
2020-09-02 09:00:00 11.9 23 Este 29 Nordeste 0 -- -- 85
2020-09-02 08:00:00 9.9 21 Este 33 Este 0 -- -- 92
2020-09-02 07:00:00 10.3 25 Este 34 Este 0 -- -- 91
2020-09-02 06:00:00 9.6 21 Este 28 Nordeste 0 -- -- 91
2020-09-02 05:00:00 9.8 19 Este 31 Este 0 -- -- 91
2020-09-02 04:00:00 10.4 23 Este 32 Este 0 -- -- 89
2020-09-02 03:00:00 11.1 26 Este 37 Este 0 -- -- 87
2020-09-02 02:00:00 11.7 27 Este 36 Este 0 -- -- 85
2020-09-02 01:00:00 12.4 29 Este 44 Este 0 -- -- 81
2020-09-02 00:00:00 12.9 28 Este 40 Este 0 -- -- 74
2020-09-01 23:00:00 13.8 27 Este 40 Este 0 -- -- 68
2020-09-01 22:00:00 15.2 23 Nordeste 33 Nordeste 0 -- -- 62
2020-09-01 21:00:00 18.2 24 Nordeste 36 Nordeste 0 -- -- 46
2020-09-01 20:00:00 22.5 19 Nordeste 30 Nordeste 0 -- -- 28
2020-09-01 19:00:00 24.2 12 Nordeste 22 Nordeste 0 -- -- 28
2020-09-01 18:00:00 24.5 11 Norte 28 Norte 0 -- -- 26
2020-09-01 17:00:00 24 5 Norte 22 Norte 0 -- -- 27
2020-09-01 16:00:00 25.4 4 Norte 18 Norte 0 -- -- 27
2020-09-01 15:00:00 23.6 8 Norte 19 Norte 0 -- -- 28
2020-09-01 14:00:00 23.6 7 Norte 21 Norte 0 -- -- 29
2020-09-01 13:00:00 22.4 6 Norte 16 Norte 0 -- -- 32
2020-09-01 12:00:00 21.2 9 Este 16 Este 0 -- -- 36
2020-09-01 11:00:00 18.3 9 Este 14 Sudeste 0 -- -- 43
2020-09-01 10:00:00 15.7 10 Este 14 Este 0 -- -- 48
2020-09-01 09:00:00 12.5 6 Este 9 Nordeste 0 -- -- 58
2020-09-01 08:00:00 10.9 6 Nordeste 10 Este 0 -- -- 59
2020-09-01 07:00:00 11 7 Este 9 Este 0 -- -- 56
2020-09-01 06:00:00 12 7 Sudeste 10 Sudeste 0 -- -- 53
2020-09-01 05:00:00 12.1 5 Sudeste 11 Nordeste 0 -- -- 53
2020-09-01 04:00:00 13.7 6 Este 10 Este 0 -- -- 46
2020-09-01 03:00:00 13 8 Nordeste 10 Este 0 -- -- 44
2020-09-01 02:00:00 13.4 8 Este 9 Este 0 -- -- 42
2020-09-01 01:00:00 15.1 5 Este 9 Nordeste 0 -- -- 40
2020-09-01 00:00:00 13.7 6 Nordeste 13 Norte 0 -- -- 42
2020-08-31 23:00:00 14.4 12 Norte 15 Norte 0 -- -- 39
2020-08-31 22:00:00 14.2 9 Norte 12 Noroeste 0 -- -- 35
2020-08-31 21:00:00 16.3 9 Norte 15 Norte 0 -- -- 32
2020-08-31 20:00:00 19.1 10 Norte 23 Sudoeste 0 -- -- 28
2020-08-31 19:00:00 21.9 10 Noroeste 23 Norte 0 -- -- 25
2020-08-31 18:00:00 20.6 12 Noroeste 23 Noroeste 0 -- -- 27
2020-08-31 17:00:00 20.9 11 Noroeste 20 Norte 0 -- -- 28
2020-08-31 16:00:00 21.4 6 Noroeste 23 Oeste 0 -- -- 30
2020-08-31 15:00:00 20.7 0 Calma 23 Noroeste 0 -- -- 32
2020-08-31 14:00:00 20.1 7 Sudoeste 17 Sudoeste 0 -- -- 32
2020-08-31 13:00:00 18.5 9 Oeste 16 Oeste 0 -- -- 36
2020-08-31 12:00:00 18.5 3 Sur 11 Sur 0 -- -- 42
2020-08-31 11:00:00 14.6 3 Sudeste 9 Sudoeste 0 -- -- 53
2020-08-31 10:00:00 10.7 5 Este 14 Este 0 -- -- 71
2020-08-31 09:00:00 8.2 10 Este 13 Este 0 -- -- 86
2020-08-31 08:00:00 5.4 12 Este 17 Este 0 -- -- 94
2020-08-31 07:00:00 5.4 14 Este 20 Este 0 -- -- 92
2020-08-31 06:00:00 5.9 18 Este 20 Este 0 -- -- 89
2020-08-31 05:00:00 6.5 18 Este 21 Este 0 -- -- 84
2020-08-31 04:00:00 6.9 17 Este 21 Este 0 -- -- 81
2020-08-31 03:00:00 7.6 18 Este 24 Este 0 -- -- 78
2020-08-31 02:00:00 8.2 19 Este 26 Este 0 -- -- 78
2020-08-31 01:00:00 9.2 18 Este 30 Este 0 -- -- 75
2020-08-31 00:00:00 9.7 21 Este 28 Este 0 -- -- 72
2020-08-30 23:00:00 10.2 18 Este 28 Este 0 -- -- 67
2020-08-30 22:00:00 11.7 19 Este 27 Nordeste 0 -- -- 57
2020-08-30 21:00:00 13.6 18 Este 32 Este 0 -- -- 46
2020-08-30 20:00:00 17.1 16 Este 24 Este 0 -- -- 36
2020-08-30 19:00:00 18.3 11 Nordeste 22 Nordeste 0 -- -- 35
2020-08-30 18:00:00 16.4 3 Este 17 Nordeste 0 -- -- 38
2020-08-30 17:00:00 16.7 8 Nordeste 16 Nordeste 0 -- -- 38
2020-08-30 16:00:00 17.2 6 Nordeste 17 Norte 0 -- -- 40
2020-08-30 15:00:00 16.5 6 Este 16 Este 0 -- -- 45
2020-08-30 14:00:00 15.1 6 Nordeste 17 Este 0 -- -- 49
2020-08-30 13:00:00 13.7 4 Nordeste 12 Nordeste 0 -- -- 52
2020-08-30 12:00:00 13.7 6 Norte 21 Nordeste 0 -- -- 52
2020-08-30 11:00:00 13.5 8 Nordeste 23 Este 0 -- -- 56
2020-08-30 10:00:00 11.1 6 Noroeste 10 Noroeste 0 -- -- 64
2020-08-30 09:00:00 8.2 4 Noroeste 6 Noroeste 0 -- -- 86
2020-08-30 08:00:00 5 7 Noroeste 9 Noroeste 0 -- -- 91
2020-08-30 07:00:00 5.1 5 Noroeste 8 Noroeste 0 -- -- 91
2020-08-30 06:00:00 4.4 0 Calma 8 Sudoeste 0 -- -- 91
2020-08-30 05:00:00 4.5 4 Sudoeste 7 Sudoeste 0 -- -- 89
2020-08-30 04:00:00 5.7 4 Sudoeste 7 Sudoeste 0 -- -- 88
2020-08-30 03:00:00 6.7 4 Este 10 Nordeste 0 -- -- 84
2020-08-30 02:00:00 6.8 8 Nordeste 14 Nordeste 0 -- -- 84
2020-08-30 01:00:00 7.4 10 Nordeste 15 Nordeste 0 -- -- 82
2020-08-30 00:00:00 7.5 9 Nordeste 15 Nordeste 0 -- -- 81
2020-08-29 23:00:00 9.3 9 Este 21 Nordeste 0 -- -- 78
2020-08-29 22:00:00 10.6 12 Nordeste 24 Nordeste 0 -- -- 71
2020-08-29 21:00:00 11.9 18 Nordeste 38 Norte 0 -- -- 62
2020-08-29 20:00:00 13.9 27 Norte 48 Nordeste 0 -- -- 48
2020-08-29 19:00:00 15.6 28 Norte 42 Norte 0 -- -- 46
2020-08-29 18:00:00 18.4 20 Norte 37 Norte 0 -- -- 41
2020-08-29 17:00:00 18.9 23 Noroeste 38 Norte 0 -- -- 40
2020-08-29 16:00:00 17.4 23 Norte 38 Norte 0 -- -- 39
2020-08-29 15:00:00 16.6 31 Norte 44 Norte 0 -- -- 41
2020-08-29 14:00:00 18.7 27 Noroeste 43 Noroeste 0 -- -- 41
2020-08-29 13:00:00 17 16 Noroeste 36 Norte 0 -- -- 43
2020-08-29 12:00:00 16 21 Noroeste 37 Noroeste 0 -- -- 45
2020-08-29 11:00:00 14.9 16 Noroeste 25 Noroeste 0 -- -- 53
2020-08-29 10:00:00 11.7 13 Noroeste 21 Noroeste 0 -- -- 68
2020-08-29 09:00:00 9 13 Noroeste 28 Noroeste 0 -- -- 78
2020-08-29 08:00:00 6.7 15 Noroeste 18 Oeste 0 -- -- 83
2020-08-29 07:00:00 6.4 14 Noroeste 19 Noroeste 0 -- -- 81
2020-08-29 06:00:00 6.9 14 Noroeste 17 Noroeste 0 -- -- 80
2020-08-29 05:00:00 6.3 9 Noroeste 12 Norte 0 -- -- 79
2020-08-29 04:00:00 7.5 10 Norte 19 Norte 0 -- -- 75
2020-08-29 03:00:00 8.9 18 Norte 21 Norte 0 -- -- 77
2020-08-29 02:00:00 8.7 8 Nordeste 16 Este 0 -- -- 83
2020-08-29 01:00:00 10.3 10 Este 15 Nordeste 0 -- -- 79
2020-08-29 00:00:00 11.9 15 Nordeste 29 Nordeste 0 -- -- 75
2020-08-28 23:00:00 12.7 19 Nordeste 30 Nordeste 0 -- -- 73
2020-08-28 22:00:00 12.8 20 Nordeste 39 Nordeste 0 -- -- 71
2020-08-28 21:00:00 13.7 30 Nordeste 39 Nordeste 0 -- -- 67
2020-08-28 20:00:00 17.3 26 Nordeste 42 Nordeste 0 -- -- 53
2020-08-28 19:00:00 23.1 26 Noroeste 44 Oeste 0 -- -- 22
2020-08-28 18:00:00 24.5 22 Noroeste 40 Oeste 0 -- -- 20
2020-08-28 17:00:00 24.7 23 Noroeste 37 Noroeste 0 -- -- 22
2020-08-28 16:00:00 24.4 19 Noroeste 36 Oeste 0 -- -- 29
2020-08-28 15:00:00 24 19 Oeste 36 Oeste 0 -- -- 31
2020-08-28 14:00:00 22.9 18 Oeste 37 Oeste 0 -- -- 34
2020-08-28 13:00:00 22.3 19 Oeste 31 Noroeste 0 -- -- 32
2020-08-28 12:00:00 21.4 22 Noroeste 31 Noroeste 0 -- -- 40
2020-08-28 11:00:00 20.1 16 Noroeste 25 Noroeste 0 -- -- 53
2020-08-28 10:00:00 17.9 13 Noroeste 22 Oeste 0 -- -- 71
2020-08-28 09:00:00 16.2 10 Oeste 16 Oeste 0 -- -- 91
2020-08-28 08:00:00 15.5 5 Oeste 8 Noroeste 0 -- -- 95
2020-08-28 07:00:00 15.2 0 Calma 5 Noroeste 0 -- -- 95
2020-08-28 06:00:00 15.6 0 Calma 11 Este 0 -- -- 95
2020-08-28 05:00:00 15 8 Nordeste 13 Nordeste 0 -- -- 95
2020-08-28 04:00:00 15.1 9 Nordeste 12 Nordeste 0 -- -- 95
2020-08-28 03:00:00 14.8 8 Norte 9 Norte 0 -- -- 95
2020-08-28 02:00:00 16.9 5 Nordeste 11 Este 0 -- -- 91
2020-08-28 01:00:00 17.7 10 Este 17 Nordeste 0 -- -- 89
2020-08-28 00:00:00 17.5 12 Nordeste 23 Nordeste 0 -- -- 86